CheckWX is a tool to help pilots better visualize weather data.  It is not intended as a substitute for an official pre-flight weather briefing.

04:42:44 UTC

SAVC TAF
General E. Mosconi Airport
Comodoro Rivadavia, Argentina
TAF SAVC 222300Z 2300/2324 VRB05KT 7000 RA BKN0350 BKN050 TX18/2515Z TN14/2310Z BECMG 2302/2304 27015KT CAVOK BECMG 2310/2313 20020KT TEMPO 2316/2320 7000 SHRA BKN030 BKN060 BECMG 2319/2322 16010KT BKN030

Mar-23@
00:00 UTC

Mar-23 @ 00:00 UTC

Mar-23@
02:00 UTC

Mar-23 @ 02:00 UTC

TAF SAVC 222300Z 2300/2324 VRB05KT 7000 RA BKN0350 BKN050 TX18/2515Z TN14/2310Z

Expired

Wind
  • Variable at 5 KTS
Conditions
Rain
Cloud Levels
  • Broken at 5,000' AGL

Mar-23@
02:00 UTC

Mar-23 @ 02:00 UTC

Mar-23@
10:00 UTC

Mar-23 @ 10:00 UTC

BECMG 2302/2304 27015KT CAVOK

Becoming

Becoming Conditions expected by Sat, Mar 23, 2019 @ 04:00 UTC

Wind
  • 270° at 15 KTS
Conditions
No significant weather
Cloud Levels
  • No significant clouds

Mar-23@
10:00 UTC

Mar-23 @ 10:00 UTC

Mar-23@
19:00 UTC

Mar-23 @ 19:00 UTC

BECMG 2310/2313 20020KT

Becoming

Becoming Conditions expected by Sat, Mar 23, 2019 @ 13:00 UTC

Wind
  • 200° at 20 KTS
Conditions
No significant weather
Cloud Levels
  • No significant clouds

Mar-23@
16:00 UTC

Mar-23 @ 16:00 UTC

Mar-23@
20:00 UTC

Mar-23 @ 20:00 UTC

TEMPO 2316/2320 7000 SHRA BKN030 BKN060

Temporary

Temporary Changes expected for less than half the time period

Conditions
Rain
Cloud Levels
  • Broken at 3,000' AGL
  • Broken at 6,000' AGL

Mar-23@
19:00 UTC

Mar-23 @ 19:00 UTC

Mar-24@
00:00 UTC

Mar-24 @ 00:00 UTC

BECMG 2319/2322 16010KT BKN030

Becoming

Becoming Conditions expected by Sat, Mar 23, 2019 @ 22:00 UTC

Wind
  • 160° at 10 KTS
Conditions
No significant weather
Cloud Levels
  • Broken at 3,000' AGL